Time;durP1;ratioP1;P1;durP2;ratioP2;P2;SDS_P1;SDS_P2;PMS_P1;PMS_P2;Temp;Humidity;BMP_temperature;BMP_pressure;BME280_temperature;BME280_humidity;BME280_pressure;Samples;Min_cycle;Max_cycle;Signal;HPM_P1;HPM_P2
2022/04/18 00:01:08;;;;;;;4.07;1.77;;;13.30;32.80;;;13.69;28.50;99002.19;4958538;28;125132;-89
2022/04/18 00:03:37;;;;;;;2.10;1.90;;;13.50;33.50;;;13.65;28.50;98999.25;4942398;28;124438;-76
2022/04/18 00:09:46;;;;;;;1.80;1.57;;;13.20;33.40;;;13.57;28.77;98990.94;4959411;28;119990;-78
2022/04/18 00:19:55;;;;;;;2.87;2.20;;;12.90;33.70;;;13.46;29.11;98985.72;5708151;23;98848;-79
2022/04/18 00:22:23;;;;;;;2.70;1.93;;;12.80;34.20;;;13.44;29.00;98992.75;4958625;28;124823;-79
2022/04/18 00:24:51;;;;;;;3.63;1.90;;;12.20;34.10;;;13.40;29.14;98987.00;4955815;28;124536;-80
2022/04/18 00:27:19;;;;;;;2.40;2.03;;;12.90;34.10;;;13.39;28.98;98987.34;4938826;28;121041;-78
2022/04/18 00:33:28;;;;;;;2.60;1.70;;;11.20;32.60;;;13.23;29.24;98984.22;4958797;28;125272;-75
2022/04/18 00:39:38;;;;;;;2.70;2.17;;;10.60;32.50;;;13.13;29.85;98984.53;4958849;28;120350;-78
2022/04/18 00:43:03;;;;;;;2.80;2.00;;;12.50;35.40;;;13.10;29.92;98980.44;4958639;28;119703;-75
2022/04/18 00:49:12;;;;;;;1.80;1.70;;;12.60;34.80;;;12.99;29.81;98974.38;4959001;28;124753;-76
2022/04/18 00:55:24;;;;;;;5.67;1.73;;;11.40;34.00;;;12.92;30.20;98973.22;4958629;28;120004;-76
2022/04/18 01:01:33;;;;;;;5.47;2.20;;;11.00;33.90;;;12.86;30.33;98974.53;4958338;28;124928;-77
2022/04/18 01:07:42;;;;;;;2.40;2.20;;;10.90;34.20;;;12.78;30.61;98971.41;4958562;28;121405;-75
2022/04/18 01:31:00;;;;;;;3.00;2.00;;;9.80;35.50;;;12.46;31.26;98960.72;4957414;28;121082;-76
2022/04/18 01:37:12;;;;;;;1.70;1.60;;;10.50;35.50;;;12.37;31.63;98952.38;4958001;28;124714;-76
2022/04/18 01:43:20;;;;;;;3.77;1.90;;;10.30;35.60;;;12.28;31.64;98944.06;4958098;28;119854;-76
2022/04/18 01:49:30;;;;;;;2.03;1.87;;;12.50;37.90;;;12.21;31.76;98929.84;4958286;28;124735;-76
2022/04/18 01:55:38;;;;;;;2.43;1.80;;;10.00;36.00;;;12.13;32.24;98936.16;4957812;28;119898;-75
2022/04/18 02:01:47;;;;;;;2.23;2.03;;;9.90;37.20;;;12.02;32.41;98943.13;4957681;28;124815;-80
2022/04/18 02:07:56;;;;;;;2.43;1.90;;;10.80;37.40;;;11.89;32.31;98944.84;4957915;28;119921;-76
2022/04/18 03:02:27;;;;;;;2.60;2.40;;;10.60;40.00;;;11.13;34.59;98903.31;5899479;23;98523;-76
2022/04/18 03:08:36;;;;;;;2.40;2.07;;;8.70;39.60;;;11.03;34.28;98893.28;4960165;28;125058;-76
2022/04/18 06:52:00;;;;;;;2.93;2.53;;;10.40;45.70;;;11.21;37.67;98844.47;6038799;23;98642;31
2022/04/18 06:58:30;;;;;;;3.70;2.90;;;10.80;45.50;;;11.40;37.10;98845.06;4902633;28;120394;-76
2022/04/18 07:00:56;;;;;;;4.20;3.10;;;10.60;46.00;;;11.47;37.04;98841.84;4902597;28;119773;-83
2022/04/18 07:03:26;;;;;;;3.70;2.80;;;10.70;45.80;;;11.61;36.64;98852.84;4899196;28;124881;-84
2022/04/18 07:09:35;;;;;;;3.70;2.60;;;9.50;44.60;;;11.88;36.76;98840.78;4883481;28;120399;-78
2022/04/18 07:12:41;;;;;;;4.00;2.63;;;11.20;45.70;;;12.03;36.22;98840.31;4883601;28;119728;-85
2022/04/18 07:18:49;;;;;;;3.73;2.30;;;11.40;44.60;;;12.31;36.11;98838.13;4883379;28;124821;-82
2022/04/18 07:24:59;;;;;;;4.43;2.80;;;9.50;43.60;;;12.62;35.43;98848.25;4881596;28;120807;-89
2022/04/18 07:27:30;;;;;;;4.33;3.20;;;11.80;44.80;;;12.70;35.47;98847.44;4866190;28;123328;-84
2022/04/18 07:30:00;;;;;;;3.30;2.33;;;11.90;45.20;;;12.83;35.47;98854.81;4863862;29;124488;-82
2022/04/18 07:45:06;;;;;;;4.13;3.40;;;12.40;43.10;;;13.29;34.22;98835.84;4918071;28;120395;-79
2022/04/18 07:51:31;;;;;;;3.10;2.80;;;12.60;42.60;;;13.45;34.30;98827.81;4920191;28;125113;-84
2022/04/18 07:57:40;;;;;;;2.50;2.17;;;12.70;42.30;;;13.62;33.72;98830.56;4920582;28;120552;-88
2022/04/18 08:01:06;;;;;;;3.50;2.97;;;12.50;42.60;;;13.75;33.78;98841.78;4920349;28;119733;-88
2022/04/18 08:07:14;;;;;;;3.53;3.03;;;12.90;41.70;;;13.78;33.18;98838.31;4936313;28;124876;-90
2022/04/18 08:09:43;;;;;;;4.80;2.93;;;15.70;44.30;;;13.80;33.40;98842.41;4938237;28;120074;-89
2022/04/18 08:12:49;;;;;;;4.37;2.97;;;13.10;42.00;;;13.85;33.24;98841.41;4933961;28;119952;-91
2022/04/18 08:18:57;;;;;;;7.93;3.53;;;14.60;42.70;;;13.95;32.60;98832.72;4938492;28;124863;-89
2022/04/18 08:22:14;;;;;;;3.73;3.20;;;13.30;41.30;;;13.98;32.70;98831.22;4938424;28;120122;-87
2022/04/18 08:24:43;;;;;;;4.83;2.30;;;13.20;40.70;;;14.03;32.63;98831.84;4935313;28;120503;-90
2022/04/18 08:27:52;;;;;;;2.73;2.43;;;13.30;41.30;;;14.12;32.85;98832.59;4935631;28;124784;-90
2022/04/18 08:30:21;;;;;;;3.47;2.70;;;13.30;40.80;;;14.23;32.87;98835.81;4934413;28;124682;-89
2022/04/18 08:33:26;;;;;;;3.80;2.90;;;13.50;41.60;;;14.29;32.43;98836.44;4901788;28;119032;-92
2022/04/18 08:35:53;;;;;;;3.43;2.23;;;13.60;40.70;;;14.40;32.57;98839.63;4899120;28;119499;-91
2022/04/18 08:38:24;;;;;;;3.93;3.17;;;13.60;41.10;;;14.45;32.02;98839.44;4891119;28;122126;-91
2022/04/18 08:40:56;;;;;;;4.20;2.67;;;13.60;40.40;;;14.43;31.93;98842.59;4936565;28;123644;-92
2022/04/18 08:47:05;;;;;;;4.00;3.07;;;13.80;40.20;;;14.43;31.73;98831.47;4936090;28;120047;-90
2022/04/18 08:53:16;;;;;;;3.00;2.37;;;13.80;39.90;;;14.52;31.89;98829.44;4937711;28;124817;-90
2022/04/18 08:55:43;;;;;;;3.73;2.40;;;13.90;40.00;;;14.60;31.85;98836.09;4919042;28;119433;-90
2022/04/18 08:58:47;;;;;;;3.63;2.27;;;13.90;40.00;;;14.69;31.89;98838.81;4933014;28;118780;-91
2022/04/18 09:01:13;;;;;;;3.10;2.33;;;14.00;40.00;;;14.78;31.75;98836.81;4915911;28;123914;-91
2022/04/18 09:03:59;;;;;;;3.53;2.50;;;14.10;40.10;;;14.86;31.80;98835.09;4936181;28;124304;-91
2022/04/18 09:10:09;;;;;;;3.20;2.63;;;14.20;39.70;;;14.93;31.46;98827.81;4930624;28;119981;-85
2022/04/18 09:16:17;;;;;;;4.20;3.30;;;14.30;39.50;;;14.98;30.95;98813.69;4915695;28;124748;-90
2022/04/18 09:19:12;;;;;;;3.13;2.83;;;14.30;39.10;;;15.00;31.41;98803.03;4915126;28;120178;-90
2022/04/18 09:22:01;;;;;;;3.70;2.30;;;14.40;39.20;;;15.06;31.04;98813.97;4897546;28;120656;-91
2022/04/18 09:24:32;;;;;;;3.30;2.60;;;14.40;38.80;;;15.08;30.99;98811.66;4900401;28;122989;-89
2022/04/18 09:27:15;;;;;;;3.53;2.80;;;14.40;38.80;;;15.15;30.87;98806.34;4915688;28;123637;-92
2022/04/18 09:29:41;;;;;;;2.57;2.30;;;14.50;38.90;;;15.22;31.06;98789.91;4914290;28;119069;-91
2022/04/18 09:32:13;;;;;;;3.40;3.00;;;14.50;38.90;;;15.29;30.94;98792.13;4894852;28;117822;-91
2022/04/18 09:42:12;;;;;;;3.23;2.53;;;14.60;38.10;;;15.24;30.61;98782.03;4913468;28;120407;-76
2022/04/18 09:48:23;;;;;;;2.40;2.20;;;14.70;37.90;;;15.30;30.34;98782.63;4918514;28;125134;-79
2022/04/18 09:51:01;;;;;;;3.00;2.47;;;14.70;38.10;;;15.38;30.30;98784.50;4900599;28;122853;-92
2022/04/18 09:53:31;;;;;;;3.67;2.60;;;14.80;38.10;;;15.40;30.10;98780.22;4894736;28;119902;-92
2022/04/18 09:56:20;;;;;;;2.93;2.17;;;14.80;37.90;;;15.46;30.23;98778.00;4894547;28;121140;-90
2022/04/18 10:02:29;;;;;;;3.30;2.40;;;14.90;38.00;;;15.59;29.95;98778.84;4911497;28;124856;-91
2022/04/18 10:05:19;;;;;;;2.77;2.47;;;14.90;37.90;;;15.63;29.67;98766.66;4911399;28;119089;-91
2022/04/18 10:11:46;;;;;;;2.97;2.47;;;15.00;36.90;;;15.71;29.27;98766.94;4820599;29;124558;-92
2022/04/18 10:14:32;;;;;;;3.17;2.50;;;15.10;36.90;;;15.78;29.58;98772.75;4839772;29;123229;-94
2022/04/18 10:17:02;;;;;;;3.37;2.90;;;15.20;37.10;;;15.86;29.39;98757.88;4837494;29;121028;-91
2022/04/18 10:20:25;;;;;;;5.40;2.80;;;15.20;37.10;;;15.90;29.25;98748.50;4819685;29;119020;-90
2022/04/18 10:27:30;;;;;;;4.10;2.97;;;15.30;36.60;;;15.92;28.92;98744.53;4818060;29;124460;-91
2022/04/18 10:30:00;;;;;;;3.50;2.40;;;15.30;36.10;;;15.94;29.11;98743.00;4816228;29;119007;-90
2022/04/18 10:32:28;;;;;;;3.40;2.57;;;15.30;36.30;;;16.01;28.88;98736.84;4786125;29;117005;-91
2022/04/18 10:35:35;;;;;;;5.17;2.80;;;15.40;36.30;;;16.11;29.07;98744.72;4818840;29;123612;-92
2022/04/18 10:41:45;;;;;;;4.87;2.90;;;15.60;36.60;;;16.32;28.52;98736.22;4828452;29;120494;-92
2022/04/18 10:44:38;;;;;;;4.63;3.13;;;15.60;36.00;;;16.35;28.02;98725.16;4841125;28;118532;-92
2022/04/18 10:47:26;;;;;;;3.70;3.07;;;15.70;35.30;;;16.39;27.87;98730.03;4921525;28;123822;-92
2022/04/18 10:50:34;;;;;;;4.60;3.43;;;15.80;35.10;;;16.43;27.91;98728.97;4905418;28;123699;-94
2022/04/18 10:57:01;;;;;;;3.60;2.73;;;15.90;35.00;;;16.54;27.95;98726.50;4936133;28;119599;-92
2022/04/18 10:59:31;;;;;;;3.40;2.60;;;15.90;35.30;;;16.65;28.01;98727.63;4916556;28;124561;-92
2022/04/18 11:05:40;;;;;;;3.67;2.47;;;16.10;35.60;;;16.93;27.52;98712.91;4926501;28;120428;-93
2022/04/18 11:08:24;;;;;;;4.83;2.90;;;16.30;35.70;;;17.00;27.41;98704.69;4915236;28;118507;-89
2022/04/18 11:11:16;;;;;;;3.23;2.87;;;16.40;35.00;;;17.11;27.33;98705.78;4930364;28;123737;-93
2022/04/18 11:13:43;;;;;;;2.53;2.20;;;16.50;34.80;;;17.25;27.29;98696.16;4894042;28;123376;-92
2022/04/18 11:16:26;;;;;;;3.87;2.30;;;16.50;34.80;;;17.38;27.51;98703.28;4909917;28;119833;-93
2022/04/18 11:19:15;;;;;;;3.33;2.63;;;16.70;34.90;;;17.51;27.09;98698.44;4893889;28;118798;-92
2022/04/18 11:22:20;;;;;;;4.13;2.57;;;16.80;34.70;;;17.61;26.57;98681.13;4916104;28;124217;-91
2022/04/18 11:24:51;;;;;;;4.30;2.40;;;17.00;33.80;;;17.71;26.54;98688.16;4905502;28;124128;-93
2022/04/18 11:30:59;;;;;;;3.63;2.43;;;17.20;33.20;;;17.85;26.30;98683.72;4925690;28;119363;-93
2022/04/18 11:33:28;;;;;;;5.77;2.73;;;17.20;33.50;;;17.95;26.50;98682.34;4888386;28;123775;-92
2022/04/18 11:36:03;;;;;;;4.13;3.00;;;17.30;33.70;;;18.06;25.79;98680.59;4898165;28;123392;-93
2022/04/18 11:38:32;;;;;;;2.80;2.40;;;17.40;33.00;;;18.11;26.01;98671.13;4893218;28;118179;-94
2022/04/18 11:40:59;;;;;;;3.40;2.70;;;17.50;33.20;;;18.22;26.01;98668.56;4899456;28;118051;-93
2022/04/18 11:43:28;;;;;;;3.37;2.50;;;17.60;33.50;;;18.39;26.06;98665.31;4876356;28;123417;-93
2022/04/18 11:46:07;;;;;;;4.30;3.00;;;17.70;33.60;;;18.54;25.61;98661.66;4899626;28;123208;-91
2022/04/18 11:48:54;;;;;;;3.60;2.73;;;17.80;32.90;;;18.65;25.76;98655.47;4894069;28;119509;-91
2022/04/18 11:51:42;;;;;;;3.83;3.20;;;18.00;33.00;;;18.72;25.10;98659.19;4899675;28;119312;-92
2022/04/18 11:54:27;;;;;;;3.37;2.90;;;18.00;32.80;;;18.81;25.08;98647.81;4892797;28;123867;-92
2022/04/18 11:57:03;;;;;;;4.77;3.07;;;18.20;32.40;;;18.89;24.69;98657.16;4885472;28;123309;-93
2022/04/18 12:08:55;;;;;;;3.20;2.43;;;18.50;31.50;;;19.29;24.45;98642.66;4899519;28;123789;-91
2022/04/18 12:11:23;;;;;;;3.53;2.50;;;18.60;31.20;;;19.39;24.39;98638.38;4895683;28;119851;-90
2022/04/18 12:14:32;;;;;;;3.57;2.80;;;18.70;31.40;;;19.52;24.15;98633.41;4926919;28;119325;-93
2022/04/18 12:17:01;;;;;;;3.40;2.40;;;18.90;31.40;;;19.67;23.99;98626.88;4935432;28;123235;-91
2022/04/18 12:19:47;;;;;;;2.80;2.20;;;19.00;31.20;;;19.74;23.57;98618.53;4914844;28;122902;-93
2022/04/18 12:22:22;;;;;;;3.83;2.67;;;19.10;30.50;;;19.81;23.24;98609.44;4895986;28;118840;-93
2022/04/18 12:24:51;;;;;;;2.50;2.00;;;19.10;30.90;;;19.86;23.11;98609.91;4888426;28;118382;-93
2022/04/18 12:27:17;;;;;;;2.87;2.30;;;19.20;30.40;;;19.99;23.62;98602.09;4931925;28;124014;-93
2022/04/18 12:29:45;;;;;;;3.00;2.37;;;19.30;31.40;;;20.15;23.32;98607.50;4916930;28;122234;-92
2022/04/18 12:32:36;;;;;;;2.90;2.30;;;19.40;30.50;;;20.28;23.21;98602.44;4904295;28;119428;-93
2022/04/18 12:35:05;;;;;;;3.50;2.50;;;19.60;30.30;;;20.40;23.07;98593.78;4910250;28;117390;-92
2022/04/18 12:37:31;;;;;;;3.77;2.60;;;19.60;29.90;;;20.51;22.95;98596.69;4917664;28;123992;-92
2022/04/18 12:40:17;;;;;;;2.43;2.23;;;19.80;30.00;;;20.59;22.36;98601.22;4924088;28;123630;-91
2022/04/18 12:42:51;;;;;;;3.60;2.30;;;19.90;29.80;;;20.69;22.68;98597.72;4911377;28;118339;-92
2022/04/18 12:45:18;;;;;;;3.43;2.70;;;20.00;29.60;;;20.79;22.13;98586.97;4912168;28;119086;-92
2022/04/18 12:47:45;;;;;;;2.63;2.17;;;20.10;29.20;;;20.84;22.29;98592.25;4913250;28;122885;-91
2022/04/18 12:50:15;;;;;;;2.93;2.30;;;20.20;29.50;;;20.95;22.60;98584.72;4893272;28;123958;-92
2022/04/18 12:52:51;;;;;;;2.80;2.13;;;20.20;29.60;;;21.10;22.01;98580.84;4921393;28;118728;-93
2022/04/18 12:55:29;;;;;;;3.50;2.47;;;20.40;29.40;;;21.17;22.11;98580.94;4912026;28;118339;-93
2022/04/18 12:58:18;;;;;;;4.23;2.30;;;20.50;29.30;;;21.28;21.93;98580.19;4928494;28;124121;-92
2022/04/18 13:00:48;;;;;;;5.50;2.53;;;20.60;28.90;;;21.41;21.61;98578.69;4912025;28;123246;-93
2022/04/18 13:03:18;;;;;;;3.07;2.27;;;20.70;29.20;;;21.50;21.53;98570.75;4915313;28;120477;-93
2022/04/18 13:05:50;;;;;;;3.23;2.53;;;20.80;28.50;;;21.54;21.25;98571.56;4873369;28;119611;-92
2022/04/18 13:08:17;;;;;;;2.30;2.10;;;20.90;28.70;;;21.61;21.95;98571.63;4917468;28;123334;-93
2022/04/18 13:10:45;;;;;;;2.30;1.83;;;20.90;28.90;;;21.77;21.87;98556.47;4929011;28;124130;-92
2022/04/18 13:13:17;;;;;;;2.40;1.43;;;21.00;29.00;;;21.94;21.65;98572.59;4927876;28;119318;-93
2022/04/18 13:15:48;;;;;;;2.60;1.73;;;21.20;29.20;;;22.14;21.71;98550.59;4922616;28;118786;-92
2022/04/18 13:18:26;;;;;;;2.73;1.87;;;21.30;29.40;;;22.34;22.00;98556.72;4901868;28;123169;-91
2022/04/18 13:20:53;;;;;;;4.33;2.80;;;21.50;29.20;;;22.46;21.40;98547.09;4881997;28;123874;-91
2022/04/18 13:23:21;;;;;;;2.00;1.60;;;21.60;28.70;;;22.55;21.10;98546.72;4902952;28;119102;-92
2022/04/18 13:25:47;;;;;;;3.70;2.60;;;21.70;28.80;;;22.62;20.75;98538.28;4893487;28;118260;-93
2022/04/18 13:28:15;;;;;;;2.23;2.03;;;21.90;28.10;;;22.71;21.30;98538.72;4912858;28;124110;-92
2022/04/18 13:30:43;;;;;;;3.57;2.00;;;22.00;28.60;;;22.84;20.73;98534.28;4909656;28;123009;-92
2022/04/18 13:33:10;;;;;;;2.10;1.90;;;22.10;28.40;;;22.90;20.90;98532.69;4882575;28;119667;-92
2022/04/18 13:38:27;;;;;;;2.70;2.10;;;22.30;28.20;;;23.12;20.17;98527.06;4929993;28;124694;-90
2022/04/18 13:40:54;;;;;;;1.80;1.63;;;22.40;27.80;;;23.22;20.65;98519.84;4923140;28;123749;-94
2022/04/18 13:43:22;;;;;;;4.37;2.40;;;22.50;28.10;;;23.32;19.68;98519.81;4909428;28;118955;-94
2022/04/18 13:45:50;;;;;;;3.10;2.13;;;22.60;26.90;;;23.29;19.46;98520.63;4910684;28;118847;-92
2022/04/18 13:52:17;;;;;;;1.90;1.70;;;22.60;26.90;;;23.41;19.95;98507.31;4915599;28;123522;-92
2022/04/18 13:54:44;;;;;;;1.70;1.60;;;22.70;27.20;;;23.55;19.98;98499.59;4915480;28;120470;-93
2022/04/18 13:57:12;;;;;;;2.40;2.13;;;22.80;27.50;;;23.68;19.30;98502.00;4919790;28;119153;-93
2022/04/18 13:59:40;;;;;;;3.10;2.00;;;22.90;26.90;;;23.71;19.21;98499.19;4906030;28;124905;-92
2022/04/18 14:02:07;;;;;;;2.13;1.80;;;23.00;26.70;;;23.73;19.20;98495.97;4901039;28;124146;-92
2022/04/18 14:04:33;;;;;;;2.33;1.80;;;23.00;26.70;;;23.84;19.50;98493.13;4897539;28;119972;-93
2022/04/18 14:07:02;;;;;;;2.50;2.30;;;23.10;27.10;;;23.96;19.17;98498.28;4893069;28;119192;-93
2022/04/18 14:09:30;;;;;;;2.63;2.10;;;23.20;26.60;;;24.10;18.94;98489.75;4900294;28;125066;-93
2022/04/18 14:11:57;;;;;;;2.40;1.90;;;23.40;26.70;;;24.23;19.09;98475.97;4926501;28;122883;-93
2022/04/18 14:22:40;;;;;;;2.10;1.83;;;23.70;26.50;;;24.61;18.45;98476.97;4904062;28;124988;-93
2022/04/18 14:25:07;;;;;;;1.70;1.57;;;23.80;26.00;;;24.71;18.62;98480.13;4894795;28;119387;-92
2022/04/18 14:27:34;;;;;;;2.73;1.90;;;23.90;26.10;;;24.74;18.24;98474.44;4913906;28;118073;-91
2022/04/18 14:30:02;;;;;;;2.00;1.80;;;24.00;26.00;;;24.85;18.35;98477.16;4913976;28;124548;-92
2022/04/18 14:32:28;;;;;;;5.20;2.67;;;24.10;25.80;;;24.87;17.48;98469.09;4915629;28;123611;-93
2022/04/18 14:34:56;;;;;;;2.27;1.73;;;24.10;25.20;;;24.83;18.01;98474.78;4927953;28;119062;-93
2022/04/18 14:37:24;;;;;;;1.47;1.37;;;24.10;25.50;;;24.94;18.42;98474.69;4924208;28;118993;-92
2022/04/18 14:39:52;;;;;;;1.53;1.30;;;24.20;25.90;;;25.09;18.07;98470.50;4894523;28;122406;-92
2022/04/18 14:42:19;;;;;;;2.10;1.90;;;24.30;25.80;;;25.16;17.97;98466.03;4909693;28;123929;-92
2022/04/18 14:44:46;;;;;;;2.23;1.77;;;24.40;25.60;;;25.24;18.42;98464.75;4894696;28;120993;-94
2022/04/18 14:47:12;;;;;;;2.33;1.70;;;24.50;25.80;;;25.41;17.96;98462.94;4920484;28;119290;-93
2022/04/18 14:49:38;;;;;;;1.37;1.27;;;24.60;25.70;;;25.55;17.82;98460.75;4928470;28;124354;-93
2022/04/18 14:52:08;;;;;;;1.80;1.40;;;24.70;25.80;;;25.71;17.67;98465.00;4925548;28;123777;-93
2022/04/18 14:54:35;;;;;;;1.50;1.30;;;24.90;25.80;;;25.84;17.66;98468.91;4910840;28;118745;-92
2022/04/18 14:57:03;;;;;;;1.63;1.33;;;25.00;26.30;;;26.00;17.99;98469.09;4913065;28;118930;-93
2022/04/18 14:59:31;;;;;;;1.43;1.33;;;25.20;25.70;;;26.15;18.21;98454.78;4908416;28;123460;-94
2022/04/18 15:01:58;;;;;;;2.33;1.67;;;25.30;25.80;;;26.29;17.69;98462.25;4911094;28;123603;-92
2022/04/18 15:04:25;;;;;;;1.70;1.30;;;25.50;25.80;;;26.42;17.50;98451.94;4908623;28;118199;-93
2022/04/18 15:06:52;;;;;;;1.87;1.27;;;25.60;25.60;;;26.51;17.71;98449.41;4901588;28;118415;-94
2022/04/18 15:09:18;;;;;;;1.63;1.50;;;25.70;25.30;;;26.52;17.16;98450.19;4927725;28;124449;-93
2022/04/18 15:11:48;;;;;;;2.17;1.63;;;25.80;24.80;;;26.52;16.97;98450.19;4921079;28;124372;-93
2022/04/18 15:14:15;;;;;;;1.87;1.50;;;25.80;24.30;;;26.48;16.66;98438.09;4886586;28;118485;-93
2022/04/18 15:16:43;;;;;;;2.67;1.50;;;25.80;24.40;;;26.55;16.84;98438.81;4897579;28;118897;-94
2022/04/18 15:19:09;;;;;;;1.30;1.10;;;25.80;24.70;;;26.69;17.04;98434.16;4911286;28;123231;-93
2022/04/18 15:22:15;;;;;;;1.70;1.20;;;26.00;24.90;;;26.83;17.35;98436.75;4881709;28;124843;-91
2022/04/18 15:24:41;;;;;;;2.57;1.73;;;26.10;24.90;;;26.91;16.88;98431.75;4912106;28;119591;-92
2022/04/18 15:27:27;;;;;;;1.50;1.20;;;26.20;24.60;;;26.91;16.37;98428.91;4886491;28;118102;-92
2022/04/18 15:32:40;;;;;;;2.93;1.80;;;26.30;24.10;;;26.74;16.30;98431.63;4927469;28;124817;-89
2022/04/18 15:35:07;;;;;;;1.60;1.50;;;26.20;23.60;;;26.71;16.46;98411.84;4926626;28;120435;-89
2022/04/18 15:37:35;;;;;;;1.80;1.50;;;26.10;23.90;;;26.67;16.46;98417.56;4928790;28;119709;-90
2022/04/18 15:40:05;;;;;;;2.07;1.60;;;26.10;23.60;;;26.67;16.62;98418.38;4882802;28;123918;-90
2022/04/18 15:42:34;;;;;;;2.10;1.70;;;26.10;23.80;;;26.77;16.77;98427.13;4910944;28;122536;-89
2022/04/18 15:45:01;;;;;;;1.23;1.13;;;26.10;24.20;;;26.85;17.11;98420.91;4913426;28;118886;-91
2022/04/18 15:47:46;;;;;;;1.50;1.40;;;26.20;24.30;;;27.00;16.62;98418.63;4915762;28;119391;-91
2022/04/18 15:50:13;;;;;;;1.43;1.33;;;26.30;24.20;;;27.06;16.86;98416.88;4911745;28;124727;-92
2022/04/18 15:52:39;;;;;;;1.40;1.30;;;26.40;24.10;;;27.16;16.91;98419.94;4910799;28;123678;-91
2022/04/18 15:55:07;;;;;;;1.50;1.40;;;26.40;24.20;;;27.30;16.90;98429.03;4920233;28;119436;-92
2022/04/18 15:57:34;;;;;;;1.40;1.30;;;26.50;24.30;;;27.39;16.53;98433.31;4909936;28;119714;-92
2022/04/18 16:00:00;;;;;;;1.40;1.20;;;26.60;24.20;;;27.43;16.89;98428.38;4890971;28;123037;-92
2022/04/18 16:02:27;;;;;;;2.67;1.90;;;26.70;24.20;;;27.38;15.89;98423.19;4912416;28;123933;-90
2022/04/18 16:04:53;;;;;;;7.57;2.20;;;26.70;23.10;;;27.07;15.64;98424.16;4913359;28;118644;-91
2022/04/18 16:07:20;;;;;;;3.70;1.73;;;26.50;22.30;;;26.77;16.21;98415.78;4910832;28;118954;-91
2022/04/18 16:09:46;;;;;;;1.90;1.30;;;26.40;22.90;;;26.76;15.94;98431.19;4927055;28;124409;-91
2022/04/18 16:12:13;;;;;;;1.60;1.50;;;26.30;23.30;;;26.75;16.39;98427.56;4920587;28;123766;-89
2022/04/18 16:14:39;;;;;;;2.33;1.80;;;26.20;23.20;;;26.79;16.68;98424.69;4896101;28;119361;-94
2022/04/18 16:17:06;;;;;;;3.83;1.83;;;26.20;23.50;;;26.81;15.99;98420.19;4921160;28;119074;-93
2022/04/18 16:19:33;;;;;;;2.63;2.00;;;26.20;23.30;;;26.80;16.17;98415.72;4912789;28;123877;-91
2022/04/18 16:21:59;;;;;;;2.70;1.40;;;26.20;23.20;;;26.80;16.43;98418.56;4912923;28;123584;-92
2022/04/18 16:24:26;;;;;;;1.70;1.30;;;26.20;23.50;;;26.84;16.38;98415.66;4904101;28;119681;-92
2022/04/18 16:26:53;;;;;;;1.90;1.63;;;26.20;23.80;;;26.95;16.86;98418.28;4913094;28;118974;-94
2022/04/18 16:32:07;;;;;;;1.93;1.70;;;26.40;24.10;;;27.10;16.30;98416.81;4931475;28;123736;-90
2022/04/18 16:34:33;;;;;;;2.43;1.67;;;26.40;23.80;;;27.03;16.17;98416.97;4894527;28;117741;-87
2022/04/18 16:36:59;;;;;;;1.53;1.40;;;26.40;23.70;;;27.06;16.63;98416.88;4922679;28;119095;-86
2022/04/18 16:39:26;;;;;;;1.87;1.40;;;26.40;23.80;;;27.07;16.58;98412.00;4908221;28;124096;-85
2022/04/18 16:47:23;;;;;;;2.80;1.37;;;26.40;23.40;;;26.91;16.43;98409.06;4910752;28;120100;-89
2022/04/18 16:49:49;;;;;;;1.10;1.00;;;26.30;23.70;;;26.91;16.70;98409.88;4893284;28;124538;-88
2022/04/18 16:52:16;;;;;;;1.30;1.20;;;26.30;23.80;;;26.93;16.99;98412.28;4926288;28;123979;-86
2022/04/18 16:54:42;;;;;;;2.87;1.30;;;26.40;23.90;;;26.91;16.50;98404.19;4897462;28;119119;-88
2022/04/18 16:57:09;;;;;;;2.13;1.50;;;26.40;23.40;;;26.79;16.51;98404.84;4916997;28;118106;-87
2022/04/18 16:59:36;;;;;;;1.73;1.37;;;26.30;23.50;;;26.79;16.69;98402.78;4909640;28;125953;-88
2022/04/18 17:02:04;;;;;;;1.70;1.43;;;26.30;23.70;;;26.82;16.79;98404.75;4912387;28;124267;-90
2022/04/18 17:04:37;;;;;;;2.13;1.80;;;26.30;23.90;;;26.90;16.89;98407.47;4912199;28;119754;-86
2022/04/18 17:07:04;;;;;;;2.17;1.63;;;26.30;23.80;;;26.84;16.61;98401.47;4907924;28;119056;-88
2022/04/18 17:09:30;;;;;;;1.80;1.40;;;26.30;23.70;;;26.72;16.80;98397.25;4893199;28;124206;-91
2022/04/18 17:11:57;;;;;;;1.63;1.40;;;26.30;23.80;;;26.64;16.83;98395.75;4910834;28;123751;-91
2022/04/18 17:14:24;;;;;;;1.30;1.20;;;26.20;23.80;;;26.52;16.83;98397.19;4910477;28;119625;-88
2022/04/18 17:16:50;;;;;;;2.27;1.40;;;26.10;23.90;;;26.41;17.25;98400.16;4898458;28;119924;-88
2022/04/18 17:19:17;;;;;;;1.57;1.30;;;26.10;23.90;;;26.28;16.86;98396.31;4903450;28;123074;-88
2022/04/18 17:21:45;;;;;;;1.23;1.10;;;25.90;23.80;;;26.13;16.92;98394.94;4888736;28;124681;-89
2022/04/18 17:24:11;;;;;;;2.07;1.10;;;25.90;23.90;;;26.02;17.00;98399.94;4903343;28;119372;-90
2022/04/18 17:26:38;;;;;;;1.30;1.07;;;25.70;23.90;;;25.89;17.60;98397.69;4908364;28;117841;-90
2022/04/18 17:29:05;;;;;;;1.30;1.10;;;25.60;24.00;;;25.78;17.65;98399.84;4893969;28;123734;-90
2022/04/18 17:31:32;;;;;;;1.70;1.30;;;25.50;24.10;;;25.66;17.42;98400.41;4913060;28;125066;-88
2022/04/18 17:33:58;;;;;;;2.10;1.60;;;25.40;24.20;;;25.53;17.56;98403.78;4920678;28;119984;-88
2022/04/18 17:36:25;;;;;;;1.30;1.20;;;25.30;24.30;;;25.39;17.59;98398.31;4892011;28;118951;-88
2022/04/18 17:38:52;;;;;;;1.10;1.00;;;25.20;24.30;;;25.23;17.72;98396.06;4906264;28;124109;-89
2022/04/18 17:41:19;;;;;;;1.67;1.57;;;25.00;24.30;;;25.09;18.05;98397.00;4905811;28;123794;-90
2022/04/18 17:43:47;;;;;;;1.13;0.97;;;24.90;24.40;;;24.97;17.79;98399.56;4909328;28;119352;-92
2022/04/18 17:46:14;;;;;;;1.40;1.20;;;24.70;24.40;;;24.83;17.95;98406.16;4923174;28;119255;-88
2022/04/18 17:48:40;;;;;;;1.30;1.17;;;24.60;24.60;;;24.72;18.18;98400.59;4916055;28;124072;-88
2022/04/18 17:51:07;;;;;;;1.40;1.27;;;24.50;24.70;;;24.60;18.49;98393.41;4893135;28;123928;-90
2022/04/18 17:56:19;;;;;;;1.97;1.30;;;24.30;24.80;;;24.40;18.37;98400.84;4926848;28;119541;-89
2022/04/18 17:59:25;;;;;;;1.70;1.37;;;24.20;25.30;;;24.19;18.50;98399.78;4921563;28;124175;-91
2022/04/18 18:01:52;;;;;;;1.27;1.10;;;24.00;24.80;;;24.05;18.88;98405.53;4928812;28;123960;-92
2022/04/18 18:04:20;;;;;;;1.80;1.27;;;23.80;24.80;;;23.93;18.64;98394.69;4931486;28;120100;-93
2022/04/18 18:06:48;;;;;;;1.80;1.50;;;23.70;24.90;;;23.77;18.75;98410.09;4931525;28;119666;-92
2022/04/18 18:09:36;;;;;;;1.60;1.43;;;23.60;25.00;;;23.60;18.84;98405.31;4906679;28;123720;-93
2022/04/18 18:12:03;;;;;;;2.40;1.53;;;23.40;25.00;;;23.47;19.03;98402.16;4946226;28;123862;-90
2022/04/18 18:14:30;;;;;;;1.60;1.50;;;23.30;25.10;;;23.36;19.11;98412.66;4922768;28;118736;-91
2022/04/18 18:16:56;;;;;;;1.87;1.57;;;23.10;25.10;;;23.23;19.06;98417.13;4912467;28;119226;-92
2022/04/18 18:19:23;;;;;;;1.77;1.47;;;23.00;25.20;;;23.10;19.51;98413.94;4908141;28;124340;-92
2022/04/18 18:21:52;;;;;;;2.20;1.40;;;22.90;25.30;;;23.00;19.38;98412.75;4891751;28;123109;-90
2022/04/18 18:24:20;;;;;;;2.83;1.93;;;22.70;25.40;;;22.88;19.66;98419.56;4878184;28;118413;-92
2022/04/18 18:26:47;;;;;;;1.60;1.37;;;22.60;25.50;;;22.80;19.58;98420.00;4878267;28;118648;-92
2022/04/18 18:29:15;;;;;;;2.80;1.60;;;22.50;25.70;;;22.69;20.05;98426.44;4917411;28;124181;-92
2022/04/18 18:31:42;;;;;;;2.23;1.70;;;22.40;25.80;;;22.58;19.89;98422.81;4930397;28;124911;-90
2022/04/18 18:34:09;;;;;;;2.53;1.70;;;22.30;26.00;;;22.48;20.39;98421.59;4915412;28;118705;-89
2022/04/18 18:36:40;;;;;;;1.70;1.50;;;22.20;26.00;;;22.36;20.25;98433.28;4911092;28;119598;-92
2022/04/18 18:39:07;;;;;;;2.43;1.80;;;22.10;26.20;;;22.24;20.36;98422.38;4920889;28;123008;-90
2022/04/18 18:41:33;;;;;;;1.63;1.53;;;22.00;26.30;;;22.13;20.57;98439.22;4926069;28;123962;-90